Time;durP1;ratioP1;P1;durP2;ratioP2;P2;SDS_P1;SDS_P2;PMS_P1;PMS_P2;Temp;Humidity;BMP_temperature;BMP_pressure;BME280_temperature;BME280_humidity;BME280_pressure;Samples;Min_cycle;Max_cycle;Signal;HPM_P1;HPM_P2
2021/11/15 00:00:54;;;;;;;2.65;1.20;;;-4.50;99.90;;;;;;5122775;27;20364;-68
2021/11/15 00:03:21;;;;;;;1.92;1.40;;;-4.50;99.90;;;;;;5127414;27;20082;-68
2021/11/15 00:05:47;;;;;;;1.60;1.30;;;-4.50;99.90;;;;;;5123541;27;20102;-68
2021/11/15 00:08:13;;;;;;;2.03;1.58;;;-4.40;99.90;;;;;;5119190;27;20114;-68
2021/11/15 00:10:40;;;;;;;1.35;1.23;;;-4.40;99.90;;;;;;5125620;27;20031;-68
2021/11/15 00:13:07;;;;;;;1.95;1.40;;;-4.40;99.90;;;;;;5127306;27;20118;-68
2021/11/15 00:15:33;;;;;;;2.83;1.75;;;-4.40;99.90;;;;;;5127465;27;20031;-68
2021/11/15 00:18:00;;;;;;;1.90;1.50;;;-4.30;99.90;;;;;;5121518;27;20019;-68
2021/11/15 00:20:27;;;;;;;1.63;1.50;;;-4.40;99.90;;;;;;5117674;27;20487;-70
2021/11/15 00:22:53;;;;;;;2.13;1.40;;;-4.40;99.90;;;;;;5126704;27;20026;-68
2021/11/15 00:25:20;;;;;;;3.25;1.33;;;-4.50;99.90;;;;;;5124577;27;20023;-68
2021/11/15 00:27:46;;;;;;;2.08;1.45;;;-4.40;99.90;;;;;;5118691;27;20019;-68
2021/11/15 00:30:13;;;;;;;1.70;1.50;;;-4.40;99.90;;;;;;5121881;27;20038;-68
2021/11/15 00:32:42;;;;;;;3.00;1.40;;;-4.30;99.90;;;;;;5126752;27;20129;-68
2021/11/15 00:35:09;;;;;;;2.70;2.03;;;-4.30;99.90;;;;;;5122369;27;20068;-68
2021/11/15 00:37:36;;;;;;;3.03;1.80;;;-4.30;99.90;;;;;;5118462;27;20024;-68
2021/11/15 00:40:07;;;;;;;2.40;1.67;;;-4.30;99.90;;;;;;5125105;27;20050;-68
2021/11/15 00:42:33;;;;;;;3.28;1.70;;;-4.20;99.90;;;;;;5112608;28;20034;-68
2021/11/15 00:44:59;;;;;;;3.05;1.83;;;-4.20;99.90;;;;;;5119309;27;20023;-68
2021/11/15 00:47:25;;;;;;;2.13;1.70;;;-4.20;99.90;;;;;;5119754;27;20027;-68
2021/11/15 00:49:50;;;;;;;2.03;1.70;;;-4.20;99.90;;;;;;5131378;27;20106;-68
2021/11/15 00:52:17;;;;;;;2.15;1.52;;;-4.20;99.90;;;;;;5121745;27;20057;-68
2021/11/15 00:54:43;;;;;;;2.38;1.63;;;-4.10;99.90;;;;;;5126930;27;20566;-68
2021/11/15 00:57:11;;;;;;;2.58;1.50;;;-4.10;99.90;;;;;;5121477;27;20135;-68
2021/11/15 00:59:36;;;;;;;1.70;1.50;;;-4.00;99.90;;;;;;5118205;27;20145;-68
2021/11/15 01:02:03;;;;;;;2.55;1.58;;;-3.90;99.90;;;;;;5125462;27;20542;-68
2021/11/15 01:04:29;;;;;;;2.67;1.52;;;-3.90;99.90;;;;;;5125951;27;20540;-66
2021/11/15 01:06:56;;;;;;;1.92;1.67;;;-3.90;99.90;;;;;;5118466;28;20106;-66
2021/11/15 01:09:23;;;;;;;2.58;1.70;;;-3.80;99.90;;;;;;5120962;27;20027;-65
2021/11/15 01:11:51;;;;;;;1.80;1.50;;;-3.80;99.90;;;;;;5126460;27;20016;-65
2021/11/15 01:14:17;;;;;;;2.30;1.60;;;-3.70;99.90;;;;;;5122029;27;20474;-65
2021/11/15 01:16:44;;;;;;;1.52;1.40;;;-3.70;99.90;;;;;;5132548;27;20026;-66
2021/11/15 01:19:12;;;;;;;1.70;1.60;;;-3.60;99.90;;;;;;5118190;27;20023;-65
2021/11/15 01:21:38;;;;;;;1.98;1.55;;;-3.60;99.90;;;;;;5121686;27;20027;-65
2021/11/15 01:24:05;;;;;;;2.20;1.60;;;-3.60;99.90;;;;;;5112036;28;20049;-65
2021/11/15 01:26:33;;;;;;;2.70;1.65;;;-3.60;99.90;;;;;;5120701;28;20058;-65
2021/11/15 01:28:59;;;;;;;2.55;1.70;;;-3.60;99.90;;;;;;5118055;28;20375;-65
2021/11/15 01:31:25;;;;;;;2.35;1.60;;;-3.60;99.90;;;;;;5132380;28;20019;-65
2021/11/15 01:33:52;;;;;;;2.80;1.60;;;-3.70;99.90;;;;;;5118900;28;20028;-65
2021/11/15 01:36:17;;;;;;;2.10;1.55;;;-3.60;99.90;;;;;;5125904;28;20084;-65
2021/11/15 01:38:43;;;;;;;5.93;1.73;;;-3.60;99.90;;;;;;5123497;28;20023;-65
2021/11/15 01:41:10;;;;;;;2.22;1.65;;;-3.60;99.90;;;;;;5117964;28;20019;-65
2021/11/15 01:43:36;;;;;;;2.03;1.52;;;-3.60;99.90;;;;;;5123070;28;20042;-65
2021/11/15 01:46:03;;;;;;;1.90;1.45;;;-3.60;99.90;;;;;;5123579;28;20020;-65
2021/11/15 01:48:28;;;;;;;3.13;1.50;;;-3.60;99.90;;;;;;5128494;28;20111;-65
2021/11/15 01:50:55;;;;;;;1.98;1.58;;;-3.60;99.90;;;;;;5128721;28;20049;-65
2021/11/15 01:53:21;;;;;;;2.15;1.60;;;-3.60;99.90;;;;;;5121802;28;20127;-65
2021/11/15 01:55:50;;;;;;;1.75;1.50;;;-3.60;99.90;;;;;;5120821;28;20050;-65
2021/11/15 01:58:17;;;;;;;1.45;1.30;;;-3.50;99.90;;;;;;5117474;28;20474;-65
2021/11/15 02:00:46;;;;;;;2.65;1.48;;;-3.50;99.90;;;;;;5125059;28;20020;-66
2021/11/15 02:03:13;;;;;;;3.90;2.22;;;-3.40;99.90;;;;;;5125230;28;20069;-66
2021/11/15 02:05:40;;;;;;;1.42;1.30;;;-3.40;99.90;;;;;;5126054;28;20051;-66
2021/11/15 02:08:08;;;;;;;2.28;1.45;;;-3.40;99.90;;;;;;5123985;28;20103;-67
2021/11/15 02:10:35;;;;;;;2.85;1.65;;;-3.40;99.90;;;;;;5118713;27;20023;-66
2021/11/15 02:13:01;;;;;;;3.70;1.77;;;-3.30;99.90;;;;;;5125354;27;20020;-66
2021/11/15 02:15:28;;;;;;;1.92;1.50;;;-3.30;99.90;;;;;;5129601;27;20044;-67
2021/11/15 02:17:54;;;;;;;2.00;1.70;;;-3.30;99.90;;;;;;5123995;27;20044;-67
2021/11/15 02:20:40;;;;;;;2.40;1.55;;;-3.30;99.90;;;;;;5121073;27;20031;-67
2021/11/15 02:23:07;;;;;;;2.40;1.50;;;-3.30;99.90;;;;;;5115196;28;20020;-66
2021/11/15 02:54:39;;;;;;;2.58;1.60;;;-2.90;99.90;;;;;;5120234;27;20050;-64
2021/11/15 02:57:06;;;;;;;2.67;1.35;;;-2.90;99.90;;;;;;5135144;27;20015;-66
2021/11/15 02:59:31;;;;;;;1.88;1.60;;;-2.90;99.90;;;;;;5121310;27;20031;-66
2021/11/15 03:01:57;;;;;;;1.90;1.25;;;-2.80;99.90;;;;;;5134577;27;20095;-66
2021/11/15 03:04:24;;;;;;;1.90;1.70;;;-2.80;99.90;;;;;;5122029;27;20524;-66
2021/11/15 03:06:50;;;;;;;4.07;1.48;;;-2.70;99.90;;;;;;5128739;27;20023;-66
2021/11/15 03:09:17;;;;;;;3.65;1.70;;;-2.70;99.90;;;;;;5124516;27;20432;-65
2021/11/15 03:11:43;;;;;;;2.45;1.83;;;-2.70;99.90;;;;;;5120113;27;20031;-65
2021/11/15 03:14:08;;;;;;;5.22;1.65;;;-2.60;99.90;;;;;;5125460;27;20028;-65
2021/11/15 03:16:34;;;;;;;2.78;1.63;;;-2.60;99.90;;;;;;5128864;27;20395;-66
2021/11/15 03:19:01;;;;;;;1.73;1.33;;;-2.50;99.90;;;;;;5119980;27;20055;-65
2021/11/15 03:21:28;;;;;;;2.05;1.55;;;-2.40;99.90;;;;;;5122073;27;20031;-65
2021/11/15 03:23:55;;;;;;;4.65;1.50;;;-2.40;99.90;;;;;;5128425;27;20054;-65
2021/11/15 03:26:23;;;;;;;2.42;1.40;;;-2.30;99.90;;;;;;5124708;27;20024;-65
2021/11/15 03:28:52;;;;;;;2.35;1.48;;;-2.30;99.90;;;;;;5119714;27;20467;-66
2021/11/15 03:31:22;;;;;;;2.47;1.23;;;-2.20;99.90;;;;;;5125084;27;20074;-66
2021/11/15 03:33:52;;;;;;;3.97;1.55;;;-2.10;99.90;;;;;;5128031;27;20031;-66
2021/11/15 03:36:21;;;;;;;2.20;1.38;;;-2.00;99.90;;;;;;5122714;27;20027;-66
2021/11/15 03:38:47;;;;;;;1.88;1.42;;;-2.00;99.90;;;;;;5133567;27;20026;-67
2021/11/15 03:41:14;;;;;;;3.05;1.40;;;-1.90;99.90;;;;;;5114053;28;20016;-68
2021/11/15 03:43:40;;;;;;;2.35;1.30;;;-1.80;99.90;;;;;;5127177;27;20042;-67
2021/11/15 03:46:06;;;;;;;2.45;1.50;;;-1.80;99.90;;;;;;5133968;27;20019;-67
2021/11/15 03:48:33;;;;;;;1.77;1.50;;;-1.70;99.90;;;;;;5134157;27;20076;-67
2021/11/15 03:50:59;;;;;;;4.57;1.67;;;-1.70;99.90;;;;;;5119475;27;20026;-67
2021/11/15 03:53:30;;;;;;;1.92;1.38;;;-1.60;99.90;;;;;;5124677;27;20046;-67
2021/11/15 03:55:56;;;;;;;3.53;1.48;;;-1.50;99.90;;;;;;5129899;27;20618;-67
2021/11/15 03:58:22;;;;;;;3.00;1.48;;;-1.50;99.90;;;;;;5129508;27;20051;-67
2021/11/15 04:00:48;;;;;;;5.75;1.52;;;-1.40;99.90;;;;;;5123981;27;20088;-67
2021/11/15 04:03:18;;;;;;;5.30;1.30;;;-1.40;99.90;;;;;;5133530;27;20498;-67
2021/11/15 04:05:58;;;;;;;6.00;1.63;;;-1.40;99.90;;;;;;5125172;27;20038;-66
2021/11/15 04:08:24;;;;;;;3.13;1.20;;;-1.30;99.90;;;;;;5127557;27;20028;-67
2021/11/15 04:10:51;;;;;;;3.47;1.63;;;-1.30;99.90;;;;;;5120939;27;20023;-67
2021/11/15 04:13:27;;;;;;;4.32;1.40;;;-1.20;99.90;;;;;;5119338;27;20023;-67
2021/11/15 04:15:58;;;;;;;6.22;1.40;;;-1.10;99.90;;;;;;5125002;27;20023;-67
2021/11/15 04:18:29;;;;;;;1.73;1.20;;;-1.10;99.90;;;;;;5127269;27;20015;-68
2021/11/15 04:20:56;;;;;;;3.45;1.20;;;-1.00;99.90;;;;;;5121063;27;20019;-66
2021/11/15 04:23:22;;;;;;;2.80;1.98;;;-1.00;99.90;;;;;;5119428;27;20031;-66
2021/11/15 04:25:48;;;;;;;2.05;1.15;;;-0.90;99.90;;;;;;5127266;27;20069;-67
2021/11/15 04:28:15;;;;;;;4.28;1.58;;;-0.90;99.90;;;;;;5125466;27;20031;-67
2021/11/15 04:30:40;;;;;;;2.85;1.10;;;-0.80;99.90;;;;;;5118783;27;20073;-67
2021/11/15 04:33:08;;;;;;;3.30;1.40;;;-0.80;99.90;;;;;;5122046;27;20422;-67
2021/11/15 04:35:35;;;;;;;2.83;1.45;;;-0.80;99.90;;;;;;5129410;27;20015;-67
2021/11/15 04:38:02;;;;;;;3.10;1.58;;;-0.70;99.90;;;;;;5133042;27;20054;-67
2021/11/15 04:40:28;;;;;;;1.50;0.98;;;-0.70;99.90;;;;;;5132778;27;20024;-67
2021/11/15 04:42:57;;;;;;;2.35;1.30;;;-0.70;99.90;;;;;;5119333;27;20400;-67
2021/11/15 04:45:22;;;;;;;2.40;1.38;;;-0.70;99.90;;;;;;5133330;27;20352;-67
2021/11/15 04:47:48;;;;;;;4.50;1.48;;;-0.70;99.90;;;;;;5118177;27;20022;-67
2021/11/15 04:50:15;;;;;;;4.25;1.83;;;-0.60;99.90;;;;;;5121602;27;20031;-67
2021/11/15 04:52:44;;;;;;;7.25;1.60;;;-0.60;99.90;;;;;;5126481;27;20023;-67
2021/11/15 04:55:13;;;;;;;2.30;1.33;;;-0.60;99.90;;;;;;5121979;27;20027;-68
2021/11/15 04:57:39;;;;;;;3.47;1.70;;;-0.50;99.90;;;;;;5133027;27;20027;-68
2021/11/15 05:00:11;;;;;;;2.83;2.03;;;-0.50;99.90;;;;;;5118346;27;20427;-68
2021/11/15 05:02:37;;;;;;;4.90;1.92;;;-0.50;99.90;;;;;;5121267;27;20055;-68
2021/11/15 05:05:05;;;;;;;2.50;1.33;;;-0.40;99.90;;;;;;5126396;27;20012;-67
2021/11/15 05:07:31;;;;;;;1.85;1.25;;;-0.40;99.90;;;;;;5121535;27;20467;-68
2021/11/15 05:09:56;;;;;;;1.70;1.20;;;-0.40;99.90;;;;;;5116612;27;20106;-67
2021/11/15 05:12:22;;;;;;;2.90;1.38;;;-0.40;99.90;;;;;;5119339;27;20102;-68
2021/11/15 05:14:51;;;;;;;2.92;1.30;;;-0.30;99.90;;;;;;5132533;27;20031;-68
2021/11/15 05:17:16;;;;;;;3.17;1.45;;;-0.30;99.90;;;;;;5118377;27;20019;-67
2021/11/15 05:19:45;;;;;;;1.83;1.55;;;-0.20;99.90;;;;;;5121100;27;20026;-67
2021/11/15 05:22:11;;;;;;;2.55;1.55;;;-0.20;99.90;;;;;;5126514;27;20035;-67
2021/11/15 05:24:36;;;;;;;2.67;1.35;;;-0.20;99.90;;;;;;5122365;28;20143;-67
2021/11/15 05:27:03;;;;;;;1.70;1.58;;;-0.10;99.90;;;;;;5117961;28;20027;-66
2021/11/15 05:29:30;;;;;;;7.93;1.55;;;-0.10;99.90;;;;;;5124379;28;20381;-70
2021/11/15 05:31:55;;;;;;;2.95;1.52;;;-0.10;99.90;;;;;;5125847;28;20037;-67
2021/11/15 05:34:21;;;;;;;5.45;1.60;;;0.00;99.90;;;;;;5118245;28;20035;-66
2021/11/15 05:36:48;;;;;;;2.65;1.40;;;0.10;99.90;;;;;;5132190;28;20387;-66
2021/11/15 05:39:14;;;;;;;2.40;0.95;;;0.10;99.90;;;;;;5132264;28;20339;-69
2021/11/15 05:41:40;;;;;;;4.28;1.63;;;1.00;99.90;;;;;;5132222;27;20025;-66
2021/11/15 05:44:05;;;;;;;2.03;1.08;;;4.20;99.90;;;;;;5117495;27;20030;-68
2021/11/15 05:46:31;;;;;;;2.08;1.50;;;4.60;99.90;;;;;;5128678;27;20256;-70
2021/11/15 05:48:57;;;;;;;3.80;1.60;;;3.90;99.90;;;;;;5126281;27;20463;-70
2021/11/15 05:51:23;;;;;;;2.47;1.75;;;3.30;99.90;;;;;;5127718;27;20038;-69
2021/11/15 05:53:49;;;;;;;2.35;1.35;;;2.80;99.90;;;;;;5115873;27;20391;-69
2021/11/15 05:56:15;;;;;;;2.05;1.23;;;2.40;99.90;;;;;;5118811;27;20028;-70
2021/11/15 05:58:41;;;;;;;8.73;3.45;;;2.10;99.90;;;;;;5135961;27;20034;-72
2021/11/15 06:01:07;;;;;;;2.40;1.05;;;2.00;99.90;;;;;;5130366;27;20557;-73
2021/11/15 06:03:32;;;;;;;5.22;1.63;;;1.90;99.90;;;;;;5125860;27;20130;-73
2021/11/15 06:05:58;;;;;;;4.72;2.95;;;1.80;99.90;;;;;;5116190;27;20080;-73
2021/11/15 06:08:24;;;;;;;7.15;3.10;;;1.70;99.90;;;;;;5117458;27;20024;-72
2021/11/15 06:10:50;;;;;;;4.40;1.90;;;1.70;99.90;;;;;;5128728;27;20364;-69
2021/11/15 06:13:16;;;;;;;2.78;1.52;;;1.60;99.90;;;;;;5129261;27;20035;-68
2021/11/15 06:15:42;;;;;;;4.63;1.35;;;1.60;99.90;;;;;;5125839;27;20390;-71
2021/11/15 06:18:08;;;;;;;4.28;1.52;;;1.60;99.90;;;;;;5135019;27;20219;-70
2021/11/15 06:20:34;;;;;;;5.30;1.90;;;1.70;99.90;;;;;;5135352;27;20047;-69
2021/11/15 06:23:00;;;;;;;3.05;1.70;;;1.70;99.90;;;;;;5124067;27;20535;-71
2021/11/15 06:25:26;;;;;;;4.72;1.77;;;1.80;99.90;;;;;;5114930;28;20141;-70
2021/11/15 06:27:52;;;;;;;3.15;1.45;;;3.80;99.90;;;;;;5129478;27;20053;-71
2021/11/15 06:30:21;;;;;;;3.35;1.27;;;4.70;99.90;;;;;;5134525;27;20047;-71
2021/11/15 06:32:47;;;;;;;1.60;1.00;;;5.00;99.90;;;;;;5120333;27;20047;-71
2021/11/15 06:35:13;;;;;;;4.75;1.60;;;4.80;99.90;;;;;;5125247;27;20031;-71
2021/11/15 06:37:40;;;;;;;2.22;1.27;;;4.70;99.90;;;;;;5115236;27;20022;-71
2021/11/15 06:40:08;;;;;;;2.58;1.05;;;4.60;99.90;;;;;;5114473;28;20032;-71
2021/11/15 06:42:34;;;;;;;2.15;1.33;;;4.70;99.90;;;;;;5117240;27;20027;-71
2021/11/15 06:45:02;;;;;;;3.10;1.33;;;4.90;99.90;;;;;;5123569;27;20418;-71
2021/11/15 06:47:33;;;;;;;3.20;1.25;;;5.10;99.90;;;;;;5131322;27;20479;-71
2021/11/15 06:49:59;;;;;;;1.33;1.23;;;5.00;99.90;;;;;;5129219;27;20402;-71
2021/11/15 06:52:25;;;;;;;2.03;1.13;;;5.20;99.90;;;;;;5119626;27;20040;-68
2021/11/15 06:54:51;;;;;;;3.00;1.20;;;5.10;99.90;;;;;;5120105;27;20032;-68
2021/11/15 06:57:17;;;;;;;2.85;1.30;;;5.20;99.90;;;;;;5123209;27;20023;-68
2021/11/15 06:59:44;;;;;;;2.08;1.20;;;5.40;99.90;;;;;;5135153;27;20446;-68
2021/11/15 07:02:09;;;;;;;3.17;1.25;;;5.40;99.90;;;;;;5127001;27;20186;-68
2021/11/15 07:04:35;;;;;;;1.98;1.15;;;5.30;99.90;;;;;;5114245;28;20104;-68
2021/11/15 07:07:02;;;;;;;3.42;1.55;;;5.40;99.90;;;;;;5119541;27;20023;-67
2021/11/15 07:09:29;;;;;;;1.92;1.20;;;5.20;99.90;;;;;;5134874;27;20106;-65
2021/11/15 07:11:55;;;;;;;1.55;1.30;;;4.70;99.90;;;;;;5116343;27;20028;-65
2021/11/15 07:14:21;;;;;;;3.53;1.13;;;4.30;99.90;;;;;;5113800;28;20031;-65
2021/11/15 07:16:47;;;;;;;1.13;1.00;;;4.10;99.90;;;;;;5130346;27;20027;-67
2021/11/15 07:19:13;;;;;;;1.20;1.10;;;3.80;99.90;;;;;;5126497;27;20522;-66
2021/11/15 07:21:38;;;;;;;1.83;1.30;;;3.60;99.90;;;;;;5128248;27;20110;-67
2021/11/15 07:24:05;;;;;;;1.73;1.27;;;3.40;99.90;;;;;;5119827;27;20031;-66
2021/11/15 07:26:31;;;;;;;1.77;1.20;;;3.30;99.90;;;;;;5134594;27;20027;-66
2021/11/15 07:28:58;;;;;;;1.17;1.02;;;3.20;99.90;;;;;;5129900;27;20093;-67
2021/11/15 07:31:25;;;;;;;0.90;0.82;;;3.20;99.90;;;;;;5138375;27;20489;-67
2021/11/15 07:33:51;;;;;;;1.55;1.10;;;3.10;99.90;;;;;;5125404;27;20502;-67
2021/11/15 07:36:17;;;;;;;1.30;1.20;;;3.10;99.90;;;;;;5133034;27;20038;-67
2021/11/15 07:38:44;;;;;;;2.78;1.30;;;3.10;99.90;;;;;;5118180;27;20028;-65
2021/11/15 07:41:09;;;;;;;1.42;1.00;;;3.00;99.90;;;;;;5133803;27;20019;-66
2021/11/15 07:43:35;;;;;;;2.65;1.40;;;3.00;99.90;;;;;;5125183;27;20534;-64
2021/11/15 07:46:01;;;;;;;2.22;1.30;;;2.90;99.90;;;;;;5113443;27;20073;-64
2021/11/15 07:48:28;;;;;;;2.78;1.00;;;2.90;99.90;;;;;;5132347;27;20451;-63
2021/11/15 07:50:54;;;;;;;1.45;1.10;;;2.80;99.90;;;;;;5124800;27;20104;-67
2021/11/15 07:53:23;;;;;;;1.63;1.40;;;2.80;99.90;;;;;;5121903;27;20036;-65
2021/11/15 07:55:48;;;;;;;1.23;1.10;;;2.80;99.90;;;;;;5124495;27;20373;-64
2021/11/15 07:58:15;;;;;;;1.52;1.02;;;2.80;99.90;;;;;;5130836;27;20052;-65
2021/11/15 08:00:41;;;;;;;1.42;1.17;;;2.80;99.90;;;;;;5128036;27;20426;-66
2021/11/15 08:03:07;;;;;;;2.00;1.30;;;3.00;99.90;;;;;;5117164;27;20503;-66
2021/11/15 08:05:35;;;;;;;1.58;1.10;;;4.00;99.90;;;;;;5116526;27;20057;-66
2021/11/15 08:08:01;;;;;;;1.20;1.10;;;4.20;99.90;;;;;;5125631;27;20019;-66
2021/11/15 08:10:29;;;;;;;1.05;0.95;;;3.90;99.90;;;;;;5128192;27;20012;-66
2021/11/15 08:12:58;;;;;;;0.93;0.93;;;3.50;99.90;;;;;;5128265;27;20030;-66
2021/11/15 08:15:31;;;;;;;1.67;0.90;;;3.40;99.90;;;;;;5119256;27;20058;-66
2021/11/15 08:17:59;;;;;;;0.95;0.90;;;3.20;99.90;;;;;;5119229;27;20079;-66
2021/11/15 08:20:33;;;;;;;0.95;0.90;;;3.10;99.90;;;;;;5133544;27;20043;-66
2021/11/15 08:23:03;;;;;;;1.40;1.00;;;3.10;99.90;;;;;;5127069;27;20031;-66
2021/11/15 08:26:05;;;;;;;1.67;1.00;;;3.00;99.90;;;;;;5127295;27;20011;-66
2021/11/15 08:28:33;;;;;;;0.80;0.80;;;2.90;99.90;;;;;;5117405;27;20057;-66
2021/11/15 08:30:59;;;;;;;0.73;0.73;;;2.90;99.90;;;;;;5112369;27;20011;-66
2021/11/15 08:33:28;;;;;;;0.95;0.95;;;2.90;99.90;;;;;;5117370;27;20122;-66
2021/11/15 08:35:54;;;;;;;0.98;0.93;;;2.80;99.90;;;;;;5120690;27;20015;-66
2021/11/15 08:38:23;;;;;;;0.77;0.77;;;2.80;99.90;;;;;;5112587;28;20391;-66
2021/11/15 08:40:58;;;;;;;0.80;0.80;;;2.70;99.90;;;;;;5129526;27;20108;-66
2021/11/15 08:43:24;;;;;;;0.70;0.70;;;2.70;99.90;;;;;;5120546;28;20024;-66
2021/11/15 08:45:51;;;;;;;1.45;1.00;;;2.60;99.90;;;;;;5129524;28;20019;-66
2021/11/15 08:48:22;;;;;;;0.95;0.70;;;3.20;99.90;;;;;;5128881;28;20520;-66
2021/11/15 08:50:50;;;;;;;1.10;0.85;;;3.30;99.90;;;;;;5129923;28;20039;-66
2021/11/15 08:53:16;;;;;;;0.88;0.88;;;3.00;99.90;;;;;;5129497;28;20020;-65
2021/11/15 08:55:42;;;;;;;0.77;0.77;;;2.90;99.90;;;;;;5129434;28;20024;-65
2021/11/15 08:58:08;;;;;;;0.93;0.90;;;2.80;99.90;;;;;;5114557;28;20228;-67
2021/11/15 09:00:34;;;;;;;1.00;1.00;;;2.60;99.90;;;;;;5129471;27;20031;-68
2021/11/15 09:03:01;;;;;;;1.35;1.17;;;2.60;99.90;;;;;;5123402;27;20028;-67
2021/11/15 09:05:28;;;;;;;1.33;1.05;;;3.00;99.90;;;;;;5111253;27;20020;-66
2021/11/15 09:07:54;;;;;;;0.90;0.90;;;3.00;99.90;;;;;;5108584;28;20384;-66
2021/11/15 09:10:20;;;;;;;0.90;0.80;;;2.80;99.90;;;;;;5113032;28;20027;-66
2021/11/15 09:12:49;;;;;;;0.95;0.88;;;2.70;99.90;;;;;;5113866;28;20031;-66
2021/11/15 09:15:19;;;;;;;1.25;1.00;;;2.60;99.90;;;;;;5125968;28;20051;-66
2021/11/15 09:17:46;;;;;;;0.95;0.93;;;2.90;99.90;;;;;;5129311;28;20019;-65
2021/11/15 09:20:12;;;;;;;2.15;1.15;;;3.20;99.90;;;;;;5126807;27;20086;-65
2021/11/15 09:22:40;;;;;;;0.80;0.80;;;3.20;99.90;;;;;;5115740;28;20391;-65
2021/11/15 09:25:08;;;;;;;0.80;0.80;;;3.20;99.90;;;;;;5109711;28;20130;-65
2021/11/15 09:27:34;;;;;;;0.93;0.88;;;3.10;99.90;;;;;;5123927;27;20031;-66
2021/11/15 09:30:00;;;;;;;1.55;1.00;;;3.10;99.90;;;;;;5129061;27;20032;-66
2021/11/15 09:32:26;;;;;;;1.73;1.00;;;2.90;99.90;;;;;;5119444;27;20015;-66
2021/11/15 09:34:52;;;;;;;0.85;0.85;;;2.90;99.90;;;;;;5124213;27;20031;-66
2021/11/15 09:37:20;;;;;;;1.08;0.93;;;3.00;99.90;;;;;;5121284;27;20080;-66
2021/11/15 09:39:50;;;;;;;1.15;1.00;;;3.10;99.90;;;;;;5126593;27;20043;-65
2021/11/15 09:42:17;;;;;;;1.55;1.02;;;3.20;99.90;;;;;;5128976;27;20065;-65
2021/11/15 09:44:44;;;;;;;1.13;0.95;;;3.30;99.90;;;;;;5123631;27;20035;-65
2021/11/15 09:47:11;;;;;;;2.17;0.98;;;3.20;99.90;;;;;;5128412;27;20482;-64
2021/11/15 09:49:38;;;;;;;0.93;0.80;;;3.00;99.90;;;;;;5128580;27;20026;-64
2021/11/15 09:52:06;;;;;;;1.08;0.80;;;3.00;99.90;;;;;;5116239;27;20027;-64
2021/11/15 09:54:32;;;;;;;1.40;1.00;;;3.00;99.90;;;;;;5114556;28;20019;-64
2021/11/15 09:56:59;;;;;;;1.55;1.30;;;3.00;99.90;;;;;;5114627;28;20033;-64
2021/11/15 09:59:29;;;;;;;2.90;0.98;;;2.90;99.90;;;;;;5114535;28;20038;-65
2021/11/15 10:01:56;;;;;;;2.58;1.08;;;2.90;99.90;;;;;;5114808;28;20080;-63
2021/11/15 10:04:22;;;;;;;0.93;0.93;;;2.90;99.90;;;;;;5114365;28;20032;-64
2021/11/15 10:06:57;;;;;;;1.33;0.98;;;2.80;99.90;;;;;;5114695;28;20019;-64
2021/11/15 10:09:31;;;;;;;1.17;1.05;;;2.80;99.90;;;;;;5114298;28;20098;-64
2021/11/15 10:12:06;;;;;;;0.88;0.88;;;2.80;99.90;;;;;;5114366;28;20016;-65
2021/11/15 10:14:32;;;;;;;1.17;1.02;;;2.90;99.90;;;;;;5114741;28;20481;-65
2021/11/15 10:17:01;;;;;;;0.93;0.90;;;2.90;99.90;;;;;;5111104;28;20016;-65
2021/11/15 10:19:29;;;;;;;0.90;0.90;;;2.90;99.90;;;;;;5103794;28;20071;-65
2021/11/15 10:22:04;;;;;;;1.60;1.30;;;2.90;99.90;;;;;;5112908;28;20100;-65
2021/11/15 10:24:41;;;;;;;1.20;0.90;;;2.90;99.90;;;;;;5113839;28;20059;-64
2021/11/15 10:27:12;;;;;;;1.38;0.85;;;3.00;99.90;;;;;;5113741;28;20054;-63
2021/11/15 10:29:41;;;;;;;1.10;1.05;;;3.00;99.90;;;;;;5113720;28;20024;-64
2021/11/15 10:32:28;;;;;;;1.20;1.10;;;3.00;99.90;;;;;;5108812;28;20391;-64
2021/11/15 10:35:02;;;;;;;0.80;0.80;;;3.00;99.90;;;;;;5113406;28;20654;-64
2021/11/15 10:37:33;;;;;;;0.85;0.85;;;3.00;99.90;;;;;;5115295;28;20024;-65
2021/11/15 10:40:00;;;;;;;1.13;0.80;;;3.00;99.90;;;;;;5109323;28;20051;-64
2021/11/15 10:42:28;;;;;;;0.85;0.80;;;3.00;99.90;;;;;;5103709;28;20498;-65
2021/11/15 10:45:02;;;;;;;1.33;0.93;;;3.10;99.90;;;;;;5113319;28;20030;-64
2021/11/15 10:47:32;;;;;;;1.55;1.10;;;3.20;99.90;;;;;;5104394;28;20527;-64
2021/11/15 10:50:04;;;;;;;0.68;0.68;;;3.20;99.90;;;;;;5094284;28;20468;-64
2021/11/15 10:52:34;;;;;;;1.23;0.90;;;3.20;99.90;;;;;;5093826;28;20479;-64
2021/11/15 10:55:04;;;;;;;1.00;0.90;;;3.10;99.90;;;;;;5097886;28;20106;-64
2021/11/15 10:57:42;;;;;;;1.10;1.00;;;3.10;99.90;;;;;;5100575;28;20118;-64
2021/11/15 11:00:14;;;;;;;0.90;0.90;;;3.10;99.90;;;;;;5107652;28;20039;-64
2021/11/15 11:02:54;;;;;;;1.25;1.00;;;3.10;99.90;;;;;;5100660;28;20032;-65
2021/11/15 11:05:22;;;;;;;0.80;0.80;;;4.30;99.90;;;;;;5107335;28;20019;-65
2021/11/15 11:08:08;;;;;;;0.85;0.85;;;6.90;99.90;;;;;;5092647;28;20035;-64
2021/11/15 11:10:43;;;;;;;1.00;0.77;;;6.60;99.90;;;;;;5092512;28;20024;-64
2021/11/15 11:13:11;;;;;;;0.90;0.80;;;5.60;99.90;;;;;;5092567;28;20059;-64
2021/11/15 11:15:48;;;;;;;1.00;0.80;;;4.80;99.90;;;;;;5092728;28;20060;-64
2021/11/15 11:18:37;;;;;;;1.08;0.82;;;4.40;99.90;;;;;;5099038;28;20024;-64
2021/11/15 11:26:28;;;;;;;0.80;0.80;;;3.70;99.90;;;;;;5091835;28;20024;-64
2021/11/15 11:28:57;;;;;;;;;;;3.60;99.90;;;;;;5105258;28;20016;-63
2021/11/15 11:31:25;;;;;;;1.00;0.90;;;3.60;99.90;;;;;;5092507;28;19946;-63
2021/11/15 11:33:51;;;;;;;1.25;0.88;;;3.50;99.90;;;;;;5096017;28;20056;-63
2021/11/15 11:36:17;;;;;;;1.40;0.90;;;3.50;99.90;;;;;;5102593;28;20050;-63
2021/11/15 11:38:46;;;;;;;1.95;1.00;;;3.40;99.90;;;;;;5103218;28;20431;-63
2021/11/15 11:41:15;;;;;;;0.95;0.85;;;3.40;99.90;;;;;;5103798;28;20058;-63
2021/11/15 11:43:41;;;;;;;1.33;0.90;;;3.30;99.90;;;;;;5091952;28;20031;-63
2021/11/15 11:46:09;;;;;;;0.82;0.82;;;3.30;99.90;;;;;;5091966;28;20016;-63
2021/11/15 11:48:37;;;;;;;2.28;1.10;;;3.20;99.90;;;;;;5091884;28;20026;-63
2021/11/15 11:51:03;;;;;;;0.70;0.70;;;3.30;99.90;;;;;;5104397;28;20030;-63
2021/11/15 11:53:31;;;;;;;1.42;0.90;;;3.20;99.90;;;;;;5101705;28;20110;-63
2021/11/15 11:56:22;;;;;;;0.90;0.90;;;3.20;99.90;;;;;;5106585;28;20028;-64
2021/11/15 11:58:51;;;;;;;0.88;0.75;;;3.20;99.90;;;;;;5099737;28;20082;-63
2021/11/15 12:01:21;;;;;;;0.85;0.85;;;3.20;99.90;;;;;;5112330;28;20027;-64
2021/11/15 12:04:22;;;;;;;1.83;0.98;;;3.20;99.90;;;;;;5098652;28;20467;-64
2021/11/15 12:06:49;;;;;;;0.88;0.82;;;3.20;99.90;;;;;;5112102;28;20024;-64
2021/11/15 12:09:17;;;;;;;1.10;0.90;;;3.10;99.90;;;;;;5112125;28;20058;-64
2021/11/15 12:12:04;;;;;;;0.80;0.80;;;3.10;99.90;;;;;;5111913;28;20074;-64
2021/11/15 12:14:35;;;;;;;1.58;0.80;;;3.10;99.90;;;;;;5111676;28;20027;-64
2021/11/15 12:17:14;;;;;;;0.80;0.80;;;3.10;99.90;;;;;;5097831;28;20475;-64
2021/11/15 12:20:01;;;;;;;0.98;0.82;;;3.10;99.90;;;;;;5112006;28;20066;-64
2021/11/15 12:22:29;;;;;;;1.00;0.90;;;3.10;99.90;;;;;;5091261;28;20024;-64
2021/11/15 12:25:05;;;;;;;1.50;1.08;;;3.00;99.90;;;;;;5104816;28;20471;-64
2021/11/15 12:27:38;;;;;;;0.80;0.80;;;3.00;99.90;;;;;;5105627;28;20020;-64
2021/11/15 12:30:12;;;;;;;0.75;0.75;;;3.00;99.90;;;;;;5092286;28;20024;-64
2021/11/15 12:32:41;;;;;;;1.83;0.90;;;2.90;99.90;;;;;;5096944;28;20016;-64
2021/11/15 12:35:07;;;;;;;0.80;0.80;;;3.00;99.90;;;;;;5099654;28;20513;-64
2021/11/15 12:37:34;;;;;;;0.85;0.80;;;2.90;99.90;;;;;;5091842;28;20022;-64
2021/11/15 12:40:01;;;;;;;1.38;0.90;;;2.90;99.90;;;;;;5091070;28;20075;-64
2021/11/15 12:42:29;;;;;;;0.70;0.70;;;2.90;99.90;;;;;;5090831;28;20028;-64
2021/11/15 12:45:22;;;;;;;0.80;0.80;;;2.90;99.90;;;;;;5091138;28;20365;-64
2021/11/15 12:47:49;;;;;;;1.55;0.80;;;2.90;99.90;;;;;;5092049;28;20024;-64
2021/11/15 12:50:22;;;;;;;0.82;0.82;;;2.80;99.90;;;;;;5091710;28;20102;-64
2021/11/15 12:53:06;;;;;;;0.85;0.73;;;2.80;99.90;;;;;;5092211;28;20024;-64
2021/11/15 12:55:34;;;;;;;1.27;1.17;;;2.80;99.90;;;;;;5091294;28;20189;-64
2021/11/15 12:58:01;;;;;;;2.78;1.05;;;2.80;99.90;;;;;;5092097;28;20063;-64
2021/11/15 13:00:33;;;;;;;1.13;0.90;;;2.80;99.90;;;;;;5111173;28;20491;-64
2021/11/15 13:03:08;;;;;;;3.60;0.98;;;2.80;99.90;;;;;;5097058;28;20028;-64
2021/11/15 13:05:42;;;;;;;1.00;0.85;;;2.80;99.90;;;;;;5098044;28;20018;-64
2021/11/15 13:08:10;;;;;;;0.85;0.82;;;2.80;99.90;;;;;;5098201;28;20040;-64
2021/11/15 13:10:42;;;;;;;0.82;0.80;;;2.80;99.90;;;;;;5096783;28;20012;-65
2021/11/15 13:13:16;;;;;;;1.00;0.80;;;3.00;99.90;;;;;;5091122;28;20032;-65
2021/11/15 13:15:42;;;;;;;0.95;0.90;;;3.10;99.90;;;;;;5115862;28;20042;-65
2021/11/15 13:18:08;;;;;;;2.83;0.98;;;3.10;99.90;;;;;;5091031;28;20024;-66
2021/11/15 13:20:34;;;;;;;0.88;0.88;;;3.00;99.90;;;;;;5106927;28;20027;-66
2021/11/15 13:23:00;;;;;;;1.70;1.33;;;2.90;99.90;;;;;;5098809;28;20103;-69
2021/11/15 13:25:28;;;;;;;1.20;0.98;;;2.90;99.90;;;;;;5090608;28;20031;-66
2021/11/15 13:27:54;;;;;;;1.05;0.82;;;4.90;99.90;;;;;;5101002;28;20294;-65
2021/11/15 13:30:23;;;;;;;0.80;0.80;;;5.10;99.90;;;;;;5095534;28;20032;-65
2021/11/15 13:32:51;;;;;;;0.90;0.90;;;4.50;99.90;;;;;;5109014;28;20487;-65